Main page
Satellite images 10-day forecastsClimateMarine weather Cyclones Lightning AirportsFAQ Newsletter About
Weather : Europe Africa North America South America Asia Australia-Oceania Others
Languages Contact

Belgrade, Serbia

Belgrade Nikola Tesla Airport

latitude: 44-49N, longitude: 020-17E, elevation: 96 m


METAR: LYBE 042330Z 06005KT CAVOK 23/16 Q1014 NOSIG
TAF: LYBE 042300Z 0500/0524 06005KT CAVOK TX34/0513Z TN20/0504Z

Time: 01:51 (23:51 UTC)

Current weather observation

The report was made 21 minutes ago, at 23:30 UTC
Wind 5 kt from the East/Northeast
Temperature 23°C
Humidity 65%
Pressure 1014 hPa
Visibility 10 km or more
no clouds below 1500 m and no cumulonimbus

Change units

Forecast

The report was made 51 minutes ago, at 23:00 UTC
Forecast valid from 05 at 00 UTC to 05 at 24 UTC
Wind 5 kt from the East/Northeast
Visibility 10 km or more
no clouds below 1500 m and no cumulonimbus
The information on this site is subject to a disclaimer
Weather : Europe Africa North America South America Asia Australia-Oceania Others
Satellite images 10-day forecastsClimateMarine weather Cyclones Lightning AirportsFAQ Languages Contact Newsletter About